WetterOnline ( https://www.wetteronline.de )

Wetter aktuell Remseck

Aktuelles Wetter: Schnarrenberg/Stuttgart (315m)

6-stündlich | Neueste Meldungen
Ortszeit Temperatur Wetter
Mo, 30.01. 7:00 -0.1° C bedeckt
Mo, 30.01. 1:00 -1.9° C leicht bewölkt
So, 29.01. 19:00 -0.6° C wolkenlos
So, 29.01. 13:00 0.5° C bedeckt
So, 29.01. 7:00 -1.6° C bedeckt
So, 29.01. 1:00 -0.8° C bedeckt
Sa, 28.01. 19:00 0.7° C bedeckt
Sa, 28.01. 13:00 1.2° C bedeckt
Ortszeit Temperatur Wetter
Mo, 30.01. 9:00 0.6° C bedeckt
Mo, 30.01. 8:50 0.6° C bedeckt
Mo, 30.01. 8:40 0.4° C bedeckt
Mo, 30.01. 8:30 0.3° C bedeckt
Mo, 30.01. 8:20 0.3° C bedeckt
Mo, 30.01. 8:10 0.2° C bedeckt
Mo, 30.01. 8:00 0.1° C bedeckt
Mo, 30.01. 7:30 0.0° C bewölkt
Mo, 30.01. 7:00 -0.1° C bedeckt
Mo, 30.01. 6:30 0.1° C bewölkt
Mo, 30.01. 6:00 -0.4° C bedeckt
Ortszeit Relative Feuchte Sichtweite
Mo, 30.01. 7:00 72% 35 km
Mo, 30.01. 1:00 81% 27 km
So, 29.01. 19:00 77% 35 km
So, 29.01. 13:00 69% 30 km
So, 29.01. 7:00 80% 35 km
So, 29.01. 1:00 76% 45 km
Sa, 28.01. 19:00 79% 50 km
Sa, 28.01. 13:00 81% 26 km
Ortszeit Relative Feuchte Sichtweite
Mo, 30.01. 9:00 73% 45 km
Mo, 30.01. 8:50 73% -
Mo, 30.01. 8:40 74% -
Mo, 30.01. 8:30 73% 40 km
Mo, 30.01. 8:20 73% -
Mo, 30.01. 8:10 73% -
Mo, 30.01. 8:00 72% 40 km
Mo, 30.01. 7:30 72% 40 km
Mo, 30.01. 7:00 72% 35 km
Mo, 30.01. 6:30 72% 40 km
Mo, 30.01. 6:00 72% 40 km
Ortszeit Niederschlagsmenge Niederschlagsart
Mo, 30.01. 7:00 0.0 l/m2 in 12 Std. -
Mo, 30.01. 1:00 0.0 l/m2 in 6 Std. -
So, 29.01. 19:00 0.0 l/m2 in 12 Std. -
So, 29.01. 13:00 0.0 l/m2 in 6 Std. -
So, 29.01. 7:00 0.0 l/m2 in 12 Std. -
So, 29.01. 1:00 0.0 l/m2 in 6 Std. -
Sa, 28.01. 19:00 0.1 l/m2 in 12 Std. Schnee, Regen
Sa, 28.01. 13:00 0.0 l/m2 in 6 Std. -
Ortszeit Niederschlagsmenge Niederschlagsart
Mo, 30.01. 9:00 0.0 l/m2 in 1 Std. -
Mo, 30.01. 8:50 keine Meldung -
Mo, 30.01. 8:40 keine Meldung -
Mo, 30.01. 8:30 0.0 l/m2 in 30 Min -
Mo, 30.01. 8:20 keine Meldung -
Mo, 30.01. 8:10 keine Meldung -
Mo, 30.01. 8:00 0.0 l/m2 in 1 Std. -
Mo, 30.01. 7:30 0.0 l/m2 in 30 Min -
Mo, 30.01. 7:00 0.0 l/m2 in 1 Std. -
Mo, 30.01. 6:30 0.0 l/m2 in 30 Min -
Mo, 30.01. 6:00 0.0 l/m2 in 1 Std. -
Ortszeit Stärke Spitze Richtung
km/h Bft. km/h Grad Sektor
Mo, 30.01. 7:00 11 2 32 200° S
Mo, 30.01. 1:00 7 2 14 230° SW
So, 29.01. 19:00 11 2 14 270° W
So, 29.01. 13:00 4 1 11 50° NO
So, 29.01. 7:00 4 1 14 310° NW
So, 29.01. 1:00 6 1 20 330° NW
Sa, 28.01. 19:00 7 2 22 50° NO
Sa, 28.01. 13:00 11 2 18 20° N
Ortszeit Stärke Spitze Richtung
km/h Bft. km/h Grad Sektor
Mo, 30.01. 9:00 6 1 26 220° SW
Mo, 30.01. 8:50 6 1 - 220° SW
Mo, 30.01. 8:40 11 2 - 220° SW
Mo, 30.01. 8:30 11 2 25 210° SW
Mo, 30.01. 8:20 11 2 - 210° SW
Mo, 30.01. 8:10 11 2 - 230° SW
Mo, 30.01. 8:00 14 3 25 210° SW
Mo, 30.01. 7:30 11 2 25 200° S
Mo, 30.01. 7:00 11 2 32 200° S
Mo, 30.01. 6:30 14 3 32 210° SW
Mo, 30.01. 6:00 14 3 29 220° SW
Ortszeit Untergrenze Bedeckung Gattung
total tief tief mittel hoch
Mo, 30.01. 7:00 540 m 8/8 8/8 - - -
Mo, 30.01. 1:00 10500 m 4/8 0/8 - - -
So, 29.01. 19:00 - 0/8 0/8 - - -
So, 29.01. 13:00 630 m 8/8 8/8 - - -
So, 29.01. 7:00 690 m 8/8 8/8 - - -
So, 29.01. 1:00 570 m 8/8 8/8 - - -
Sa, 28.01. 19:00 540 m 8/8 8/8 - - -
Sa, 28.01. 13:00 420 m 8/8 8/8 - - -
Ortszeit Bedeckungsgrad in Achtel und Wolkenuntergrenze
Mo, 30.01. 9:00 8(600m)
Mo, 30.01. 8:50 8(600m)
Mo, 30.01. 8:40 8
Mo, 30.01. 8:30 5(660m) 8(780m)
Mo, 30.01. 8:20 5(660m) 8(780m)
Mo, 30.01. 8:10 8
Mo, 30.01. 8:00 4(660m) 6(1110m) 8(2100m)
Mo, 30.01. 7:30 7(570m) 7(810m)
Mo, 30.01. 7:00 3(540m) 4(690m) 8(990m)
Mo, 30.01. 6:30 7(570m) 7(960m)
Mo, 30.01. 6:00 2(720m) 8(1350m) 8(9000m)
Ortszeit Luftdruck NN (hPa) Tendenz (hPa in 3 Std.)
Mo, 30.01. 7:00 1024 - 1,7
Mo, 30.01. 1:00 1026 - 1,4
So, 29.01. 19:00 1028 - 0,1
So, 29.01. 13:00 1030 - 1,0
So, 29.01. 7:00 1030 - 0,2
So, 29.01. 1:00 1030 - 0,2
Sa, 28.01. 19:00 1029 + 1,1
Sa, 28.01. 13:00 1027 + 0,4
Ortszeit Luftdruck NN (hPa) Tendenz (hPa in 3 Std.)
Mo, 30.01. 9:00 1024 - 0,1
Mo, 30.01. 8:50 1024 keine Meldung
Mo, 30.01. 8:40 1024 keine Meldung
Mo, 30.01. 8:30 1023 - 0,6
Mo, 30.01. 8:20 1023 keine Meldung
Mo, 30.01. 8:10 1023 keine Meldung
Mo, 30.01. 8:00 1023 - 1,0
Mo, 30.01. 7:30 1023 - 1,0
Mo, 30.01. 7:00 1024 - 1,7
Mo, 30.01. 6:30 1024 - 2,1
Mo, 30.01. 6:00 1024 - 2,1
Ortszeit Schneehöhe (cm)
Mo, 30.01. 7:00 0
Mo, 30.01. 1:00 0
So, 29.01. 19:00 0
So, 29.01. 13:00 0
So, 29.01. 7:00 0
So, 29.01. 1:00 0
Sa, 28.01. 19:00 0
Sa, 28.01. 13:00 0
Ortszeit Schneehöhe (cm)
Mo, 30.01. 9:00 0
Mo, 30.01. 8:50 0
Mo, 30.01. 8:40 0
Mo, 30.01. 8:30 0
Mo, 30.01. 8:20 0
Mo, 30.01. 8:10 0
Mo, 30.01. 8:00 0
Mo, 30.01. 7:30 0
Mo, 30.01. 7:00 0
Mo, 30.01. 6:30 0
Mo, 30.01. 6:00 0
Link zu dieser Seite / Seite empfehlen

Das Wetter in ...